sensor_id;sensor_type;location;lat;lon;timestamp;P1;durP1;ratioP1;P2;durP2;ratioP2
61206;SDS011;47070;49.212;8.084;2022-08-30T00:00:50;2.25;;;1.40;;
61206;SDS011;47070;49.212;8.084;2022-08-30T00:05:04;2.08;;;1.40;;
61206;SDS011;47070;49.212;8.084;2022-08-30T00:09:04;4.15;;;1.50;;
61206;SDS011;47070;49.212;8.084;2022-08-30T00:13:06;3.83;;;1.60;;
61206;SDS011;47070;49.212;8.084;2022-08-30T00:17:08;2.85;;;1.40;;
61206;SDS011;47070;49.212;8.084;2022-08-30T00:21:09;4.95;;;1.40;;
61206;SDS011;47070;49.212;8.084;2022-08-30T00:25:10;4.43;;;1.55;;
61206;SDS011;47070;49.212;8.084;2022-08-30T00:29:12;3.88;;;1.73;;
61206;SDS011;47070;49.212;8.084;2022-08-30T00:33:13;3.97;;;1.45;;
61206;SDS011;47070;49.212;8.084;2022-08-30T00:37:13;3.53;;;1.60;;
61206;SDS011;47070;49.212;8.084;2022-08-30T00:41:15;2.80;;;1.20;;
61206;SDS011;47070;49.212;8.084;2022-08-30T00:45:23;2.72;;;1.50;;
61206;SDS011;47070;49.212;8.084;2022-08-30T00:49:27;2.63;;;1.63;;
61206;SDS011;47070;49.212;8.084;2022-08-30T00:53:30;3.35;;;1.38;;
61206;SDS011;47070;49.212;8.084;2022-08-30T00:57:34;2.70;;;1.40;;
61206;SDS011;47070;49.212;8.084;2022-08-30T01:01:35;2.42;;;1.40;;
61206;SDS011;47070;49.212;8.084;2022-08-30T01:05:36;2.28;;;1.35;;
61206;SDS011;47070;49.212;8.084;2022-08-30T01:09:38;3.60;;;1.70;;
61206;SDS011;47070;49.212;8.084;2022-08-30T01:13:38;3.88;;;1.67;;
61206;SDS011;47070;49.212;8.084;2022-08-30T01:17:42;2.38;;;1.10;;
61206;SDS011;47070;49.212;8.084;2022-08-30T01:21:47;1.98;;;1.48;;
61206;SDS011;47070;49.212;8.084;2022-08-30T01:25:51;2.10;;;1.38;;
61206;SDS011;47070;49.212;8.084;2022-08-30T01:29:53;2.97;;;1.45;;
61206;SDS011;47070;49.212;8.084;2022-08-30T01:33:54;3.60;;;1.42;;
61206;SDS011;47070;49.212;8.084;2022-08-30T01:37:54;4.00;;;1.58;;
61206;SDS011;47070;49.212;8.084;2022-08-30T01:41:55;3.00;;;1.40;;
61206;SDS011;47070;49.212;8.084;2022-08-30T01:45:56;2.10;;;1.35;;
61206;SDS011;47070;49.212;8.084;2022-08-30T01:49:56;2.75;;;1.50;;
61206;SDS011;47070;49.212;8.084;2022-08-30T01:53:57;1.88;;;1.58;;
61206;SDS011;47070;49.212;8.084;2022-08-30T01:57:58;4.15;;;1.90;;
61206;SDS011;47070;49.212;8.084;2022-08-30T02:01:58;2.55;;;1.65;;
61206;SDS011;47070;49.212;8.084;2022-08-30T02:06:03;1.73;;;1.63;;
61206;SDS011;47070;49.212;8.084;2022-08-30T02:10:05;5.35;;;1.60;;
61206;SDS011;47070;49.212;8.084;2022-08-30T02:14:06;2.33;;;1.92;;
61206;SDS011;47070;49.212;8.084;2022-08-30T02:18:06;2.10;;;1.65;;
61206;SDS011;47070;49.212;8.084;2022-08-30T02:22:07;2.13;;;1.92;;
61206;SDS011;47070;49.212;8.084;2022-08-30T02:26:08;3.40;;;1.80;;
61206;SDS011;47070;49.212;8.084;2022-08-30T02:30:10;3.03;;;2.00;;
61206;SDS011;47070;49.212;8.084;2022-08-30T02:34:11;2.67;;;1.98;;
61206;SDS011;47070;49.212;8.084;2022-08-30T02:38:12;2.53;;;1.55;;
61206;SDS011;47070;49.212;8.084;2022-08-30T02:42:13;2.42;;;1.80;;
61206;SDS011;47070;49.212;8.084;2022-08-30T02:46:14;3.70;;;1.80;;
61206;SDS011;47070;49.212;8.084;2022-08-30T02:50:15;4.10;;;2.28;;
61206;SDS011;47070;49.212;8.084;2022-08-30T02:54:16;2.65;;;2.15;;
61206;SDS011;47070;49.212;8.084;2022-08-30T02:58:18;2.30;;;2.08;;
61206;SDS011;47070;49.212;8.084;2022-08-30T03:02:19;3.63;;;2.00;;
61206;SDS011;47070;49.212;8.084;2022-08-30T03:06:21;3.58;;;2.35;;
61206;SDS011;47070;49.212;8.084;2022-08-30T03:10:21;2.65;;;1.88;;
61206;SDS011;47070;49.212;8.084;2022-08-30T03:14:22;3.78;;;2.00;;
61206;SDS011;47070;49.212;8.084;2022-08-30T03:18:23;3.92;;;2.00;;
61206;SDS011;47070;49.212;8.084;2022-08-30T03:22:25;2.75;;;1.73;;
61206;SDS011;47070;49.212;8.084;2022-08-30T03:26:25;2.85;;;1.75;;
61206;SDS011;47070;49.212;8.084;2022-08-30T03:30:26;3.30;;;1.95;;
61206;SDS011;47070;49.212;8.084;2022-08-30T03:34:27;4.00;;;2.00;;
61206;SDS011;47070;49.212;8.084;2022-08-30T03:38:27;2.28;;;1.95;;
61206;SDS011;47070;49.212;8.084;2022-08-30T03:42:28;5.47;;;1.70;;
61206;SDS011;47070;49.212;8.084;2022-08-30T03:46:28;2.00;;;1.80;;
61206;SDS011;47070;49.212;8.084;2022-08-30T03:50:29;2.10;;;1.73;;
61206;SDS011;47070;49.212;8.084;2022-08-30T03:54:30;3.70;;;2.00;;
61206;SDS011;47070;49.212;8.084;2022-08-30T03:58:31;3.63;;;1.63;;
61206;SDS011;47070;49.212;8.084;2022-08-30T04:02:33;2.42;;;1.90;;
61206;SDS011;47070;49.212;8.084;2022-08-30T04:06:33;2.15;;;1.70;;
61206;SDS011;47070;49.212;8.084;2022-08-30T04:10:34;3.22;;;2.05;;
61206;SDS011;47070;49.212;8.084;2022-08-30T04:14:35;2.42;;;2.10;;
61206;SDS011;47070;49.212;8.084;2022-08-30T04:18:35;1.92;;;1.83;;
61206;SDS011;47070;49.212;8.084;2022-08-30T04:22:36;4.03;;;2.00;;
61206;SDS011;47070;49.212;8.084;2022-08-30T04:26:37;3.20;;;1.83;;
61206;SDS011;47070;49.212;8.084;2022-08-30T04:30:38;4.70;;;2.10;;
61206;SDS011;47070;49.212;8.084;2022-08-30T04:34:40;3.33;;;2.10;;
61206;SDS011;47070;49.212;8.084;2022-08-30T04:38:41;3.03;;;1.75;;
61206;SDS011;47070;49.212;8.084;2022-08-30T04:42:42;3.40;;;2.13;;
61206;SDS011;47070;49.212;8.084;2022-08-30T04:46:43;2.83;;;2.00;;
61206;SDS011;47070;49.212;8.084;2022-08-30T04:50:43;4.50;;;1.80;;
61206;SDS011;47070;49.212;8.084;2022-08-30T04:54:44;2.65;;;2.13;;
61206;SDS011;47070;49.212;8.084;2022-08-30T04:58:45;2.42;;;2.00;;
61206;SDS011;47070;49.212;8.084;2022-08-30T05:02:46;5.05;;;2.00;;
61206;SDS011;47070;49.212;8.084;2022-08-30T05:06:47;2.60;;;1.80;;
61206;SDS011;47070;49.212;8.084;2022-08-30T05:10:49;2.33;;;1.95;;
61206;SDS011;47070;49.212;8.084;2022-08-30T05:14:52;3.53;;;2.20;;
61206;SDS011;47070;49.212;8.084;2022-08-30T05:18:52;2.42;;;2.03;;
61206;SDS011;47070;49.212;8.084;2022-08-30T05:22:53;2.10;;;1.90;;
61206;SDS011;47070;49.212;8.084;2022-08-30T05:26:54;4.85;;;2.05;;
61206;SDS011;47070;49.212;8.084;2022-08-30T05:30:54;2.50;;;2.13;;
61206;SDS011;47070;49.212;8.084;2022-08-30T05:34:55;4.15;;;2.10;;
61206;SDS011;47070;49.212;8.084;2022-08-30T05:38:55;3.88;;;2.47;;
61206;SDS011;47070;49.212;8.084;2022-08-30T05:42:56;3.75;;;1.60;;
61206;SDS011;47070;49.212;8.084;2022-08-30T05:46:57;5.20;;;1.92;;
61206;SDS011;47070;49.212;8.084;2022-08-30T05:51:01;1.52;;;1.27;;
61206;SDS011;47070;49.212;8.084;2022-08-30T05:55:02;6.90;;;1.88;;
61206;SDS011;47070;49.212;8.084;2022-08-30T05:59:05;3.28;;;1.50;;
61206;SDS011;47070;49.212;8.084;2022-08-30T06:03:07;4.43;;;1.80;;
61206;SDS011;47070;49.212;8.084;2022-08-30T06:07:10;2.20;;;1.60;;
61206;SDS011;47070;49.212;8.084;2022-08-30T06:11:12;5.40;;;1.80;;
61206;SDS011;47070;49.212;8.084;2022-08-30T06:15:13;5.13;;;1.80;;
61206;SDS011;47070;49.212;8.084;2022-08-30T06:19:15;7.03;;;2.15;;
61206;SDS011;47070;49.212;8.084;2022-08-30T06:23:15;6.55;;;1.80;;
61206;SDS011;47070;49.212;8.084;2022-08-30T06:27:16;4.93;;;2.00;;
61206;SDS011;47070;49.212;8.084;2022-08-30T06:31:18;4.05;;;2.00;;
61206;SDS011;47070;49.212;8.084;2022-08-30T06:35:19;3.05;;;1.85;;
61206;SDS011;47070;49.212;8.084;2022-08-30T06:39:20;4.68;;;1.95;;
61206;SDS011;47070;49.212;8.084;2022-08-30T06:43:20;5.97;;;1.83;;
61206;SDS011;47070;49.212;8.084;2022-08-30T06:47:21;4.47;;;1.83;;
61206;SDS011;47070;49.212;8.084;2022-08-30T06:51:23;4.47;;;2.00;;
61206;SDS011;47070;49.212;8.084;2022-08-30T06:55:26;6.10;;;1.73;;
61206;SDS011;47070;49.212;8.084;2022-08-30T06:59:27;6.93;;;1.88;;
61206;SDS011;47070;49.212;8.084;2022-08-30T07:03:27;3.35;;;1.90;;
61206;SDS011;47070;49.212;8.084;2022-08-30T07:07:28;6.25;;;1.98;;
61206;SDS011;47070;49.212;8.084;2022-08-30T07:11:30;6.05;;;1.85;;
61206;SDS011;47070;49.212;8.084;2022-08-30T07:15:32;5.80;;;1.77;;
61206;SDS011;47070;49.212;8.084;2022-08-30T07:19:34;6.07;;;1.90;;
61206;SDS011;47070;49.212;8.084;2022-08-30T07:23:34;6.65;;;1.75;;
61206;SDS011;47070;49.212;8.084;2022-08-30T07:27:35;7.43;;;1.92;;
61206;SDS011;47070;49.212;8.084;2022-08-30T07:31:36;6.75;;;1.88;;
61206;SDS011;47070;49.212;8.084;2022-08-30T07:35:37;3.92;;;1.55;;
61206;SDS011;47070;49.212;8.084;2022-08-30T07:39:37;4.63;;;1.75;;
61206;SDS011;47070;49.212;8.084;2022-08-30T07:43:38;7.10;;;1.67;;
61206;SDS011;47070;49.212;8.084;2022-08-30T07:47:38;2.78;;;2.08;;
61206;SDS011;47070;49.212;8.084;2022-08-30T07:51:39;2.67;;;1.90;;
61206;SDS011;47070;49.212;8.084;2022-08-30T07:55:40;4.07;;;1.95;;
61206;SDS011;47070;49.212;8.084;2022-08-30T07:59:40;2.80;;;1.58;;
61206;SDS011;47070;49.212;8.084;2022-08-30T08:03:41;5.00;;;2.00;;
61206;SDS011;47070;49.212;8.084;2022-08-30T08:07:42;2.85;;;1.98;;
61206;SDS011;47070;49.212;8.084;2022-08-30T08:11:43;5.18;;;2.13;;
61206;SDS011;47070;49.212;8.084;2022-08-30T08:15:43;3.58;;;1.73;;
61206;SDS011;47070;49.212;8.084;2022-08-30T08:19:44;8.20;;;1.95;;
61206;SDS011;47070;49.212;8.084;2022-08-30T08:23:44;3.08;;;1.63;;
61206;SDS011;47070;49.212;8.084;2022-08-30T08:27:46;2.20;;;1.60;;
61206;SDS011;47070;49.212;8.084;2022-08-30T08:31:49;4.68;;;2.13;;
61206;SDS011;47070;49.212;8.084;2022-08-30T08:35:50;3.80;;;1.30;;
61206;SDS011;47070;49.212;8.084;2022-08-30T08:39:50;2.90;;;1.58;;
61206;SDS011;47070;49.212;8.084;2022-08-30T08:43:51;4.13;;;1.70;;
61206;SDS011;47070;49.212;8.084;2022-08-30T08:52:28;3.33;;;1.70;;
61206;SDS011;47070;49.212;8.084;2022-08-30T08:57:04;2.95;;;1.83;;
61206;SDS011;47070;49.212;8.084;2022-08-30T09:01:05;4.85;;;1.98;;
61206;SDS011;47070;49.212;8.084;2022-08-30T09:05:07;2.67;;;1.85;;
61206;SDS011;47070;49.212;8.084;2022-08-30T09:09:12;5.13;;;2.20;;
61206;SDS011;47070;49.212;8.084;2022-08-30T09:13:12;9.77;;;2.38;;
61206;SDS011;47070;49.212;8.084;2022-08-30T09:17:14;3.42;;;1.77;;
61206;SDS011;47070;49.212;8.084;2022-08-30T09:21:19;4.38;;;2.15;;
61206;SDS011;47070;49.212;8.084;2022-08-30T09:25:25;6.07;;;2.15;;
61206;SDS011;47070;49.212;8.084;2022-08-30T09:29:28;4.20;;;1.88;;
61206;SDS011;47070;49.212;8.084;2022-08-30T09:33:29;5.75;;;2.03;;
61206;SDS011;47070;49.212;8.084;2022-08-30T09:37:32;2.42;;;1.85;;
61206;SDS011;47070;49.212;8.084;2022-08-30T09:41:36;3.97;;;2.17;;
61206;SDS011;47070;49.212;8.084;2022-08-30T09:45:40;3.88;;;2.17;;
61206;SDS011;47070;49.212;8.084;2022-08-30T09:49:43;5.38;;;1.88;;
61206;SDS011;47070;49.212;8.084;2022-08-30T09:54:05;2.05;;;1.67;;
61206;SDS011;47070;49.212;8.084;2022-08-30T10:03:14;2.90;;;2.13;;
61206;SDS011;47070;49.212;8.084;2022-08-30T10:15:50;1.52;;;1.40;;
61206;SDS011;47070;49.212;8.084;2022-08-30T10:20:15;5.35;;;1.85;;
61206;SDS011;47070;49.212;8.084;2022-08-30T10:24:18;5.82;;;2.13;;
61206;SDS011;47070;49.212;8.084;2022-08-30T10:28:42;5.53;;;1.98;;
61206;SDS011;47070;49.212;8.084;2022-08-30T10:32:48;3.35;;;2.15;;
61206;SDS011;47070;49.212;8.084;2022-08-30T10:37:10;4.03;;;2.22;;
61206;SDS011;47070;49.212;8.084;2022-08-30T10:45:27;5.18;;;2.15;;
61206;SDS011;47070;49.212;8.084;2022-08-30T10:49:34;3.35;;;1.80;;
61206;SDS011;47070;49.212;8.084;2022-08-30T10:53:41;6.18;;;2.10;;
61206;SDS011;47070;49.212;8.084;2022-08-30T10:57:45;5.90;;;2.55;;
61206;SDS011;47070;49.212;8.084;2022-08-30T11:01:54;2.90;;;2.15;;
61206;SDS011;47070;49.212;8.084;2022-08-30T11:20:05;4.22;;;2.58;;
61206;SDS011;47070;49.212;8.084;2022-08-30T11:33:27;3.83;;;2.55;;
61206;SDS011;47070;49.212;8.084;2022-08-30T11:37:40;4.78;;;2.28;;
61206;SDS011;47070;49.212;8.084;2022-08-30T11:41:43;3.72;;;2.00;;
61206;SDS011;47070;49.212;8.084;2022-08-30T11:45:46;2.38;;;1.77;;
61206;SDS011;47070;49.212;8.084;2022-08-30T11:49:56;4.65;;;2.58;;
61206;SDS011;47070;49.212;8.084;2022-08-30T11:54:26;5.05;;;2.40;;
61206;SDS011;47070;49.212;8.084;2022-08-30T11:58:40;2.05;;;1.80;;
61206;SDS011;47070;49.212;8.084;2022-08-30T12:02:54;4.07;;;2.70;;
61206;SDS011;47070;49.212;8.084;2022-08-30T12:06:58;4.25;;;2.50;;
61206;SDS011;47070;49.212;8.084;2022-08-30T12:19:57;4.82;;;2.33;;
61206;SDS011;47070;49.212;8.084;2022-08-30T12:24:03;3.33;;;1.75;;
61206;SDS011;47070;49.212;8.084;2022-08-30T12:28:13;4.72;;;2.17;;
61206;SDS011;47070;49.212;8.084;2022-08-30T12:32:25;3.55;;;2.45;;
61206;SDS011;47070;49.212;8.084;2022-08-30T12:36:31;3.15;;;1.85;;
61206;SDS011;47070;49.212;8.084;2022-08-30T12:40:41;2.33;;;2.10;;
61206;SDS011;47070;49.212;8.084;2022-08-30T12:44:59;2.08;;;1.88;;
61206;SDS011;47070;49.212;8.084;2022-08-30T12:49:04;3.70;;;1.90;;
61206;SDS011;47070;49.212;8.084;2022-08-30T12:53:05;3.50;;;2.70;;
61206;SDS011;47070;49.212;8.084;2022-08-30T12:57:08;2.63;;;2.42;;
61206;SDS011;47070;49.212;8.084;2022-08-30T13:05:28;2.17;;;1.27;;
61206;SDS011;47070;49.212;8.084;2022-08-30T13:09:39;2.95;;;2.60;;
61206;SDS011;47070;49.212;8.084;2022-08-30T13:13:43;3.22;;;2.08;;
61206;SDS011;47070;49.212;8.084;2022-08-30T13:17:46;2.22;;;1.65;;
61206;SDS011;47070;49.212;8.084;2022-08-30T13:21:54;1.45;;;1.23;;
61206;SDS011;47070;49.212;8.084;2022-08-30T13:25:56;2.67;;;2.47;;
61206;SDS011;47070;49.212;8.084;2022-08-30T13:29:56;2.10;;;1.70;;
61206;SDS011;47070;49.212;8.084;2022-08-30T13:33:57;2.15;;;1.92;;
61206;SDS011;47070;49.212;8.084;2022-08-30T13:37:59;2.78;;;2.10;;
61206;SDS011;47070;49.212;8.084;2022-08-30T13:42:00;4.45;;;2.22;;
61206;SDS011;47070;49.212;8.084;2022-08-30T13:46:01;3.88;;;2.25;;
61206;SDS011;47070;49.212;8.084;2022-08-30T13:50:02;3.88;;;3.00;;
61206;SDS011;47070;49.212;8.084;2022-08-30T13:54:03;3.35;;;2.05;;
61206;SDS011;47070;49.212;8.084;2022-08-30T13:58:04;3.15;;;2.67;;
61206;SDS011;47070;49.212;8.084;2022-08-30T14:02:05;2.55;;;1.88;;
61206;SDS011;47070;49.212;8.084;2022-08-30T14:06:06;2.90;;;2.40;;
61206;SDS011;47070;49.212;8.084;2022-08-30T14:10:07;2.95;;;2.53;;
61206;SDS011;47070;49.212;8.084;2022-08-30T14:14:17;3.22;;;2.60;;
61206;SDS011;47070;49.212;8.084;2022-08-30T14:18:17;2.00;;;1.80;;
61206;SDS011;47070;49.212;8.084;2022-08-30T14:22:18;2.90;;;2.45;;
61206;SDS011;47070;49.212;8.084;2022-08-30T14:26:20;3.33;;;2.63;;
61206;SDS011;47070;49.212;8.084;2022-08-30T14:30:27;1.70;;;1.60;;
61206;SDS011;47070;49.212;8.084;2022-08-30T14:34:28;4.22;;;2.50;;
61206;SDS011;47070;49.212;8.084;2022-08-30T14:38:28;2.88;;;2.50;;
61206;SDS011;47070;49.212;8.084;2022-08-30T14:42:29;5.35;;;2.83;;
61206;SDS011;47070;49.212;8.084;2022-08-30T14:46:29;4.57;;;3.17;;
61206;SDS011;47070;49.212;8.084;2022-08-30T14:50:30;5.07;;;2.75;;
61206;SDS011;47070;49.212;8.084;2022-08-30T14:54:31;4.45;;;2.63;;
61206;SDS011;47070;49.212;8.084;2022-08-30T14:58:32;3.40;;;2.78;;
61206;SDS011;47070;49.212;8.084;2022-08-30T15:02:33;3.83;;;1.92;;
61206;SDS011;47070;49.212;8.084;2022-08-30T15:06:35;4.35;;;2.38;;
61206;SDS011;47070;49.212;8.084;2022-08-30T15:10:38;5.47;;;3.10;;
61206;SDS011;47070;49.212;8.084;2022-08-30T15:14:39;9.07;;;2.92;;
61206;SDS011;47070;49.212;8.084;2022-08-30T15:18:40;2.67;;;2.17;;
61206;SDS011;47070;49.212;8.084;2022-08-30T15:22:40;3.47;;;3.08;;
61206;SDS011;47070;49.212;8.084;2022-08-30T15:26:41;3.72;;;2.25;;
61206;SDS011;47070;49.212;8.084;2022-08-30T15:30:43;4.07;;;2.80;;
61206;SDS011;47070;49.212;8.084;2022-08-30T15:34:43;2.97;;;2.30;;
61206;SDS011;47070;49.212;8.084;2022-08-30T15:38:44;2.10;;;1.40;;
61206;SDS011;47070;49.212;8.084;2022-08-30T15:42:44;2.17;;;2.05;;
61206;SDS011;47070;49.212;8.084;2022-08-30T15:46:45;3.08;;;2.40;;
61206;SDS011;47070;49.212;8.084;2022-08-30T15:50:46;3.25;;;1.83;;
61206;SDS011;47070;49.212;8.084;2022-08-30T15:54:56;4.75;;;2.10;;
61206;SDS011;47070;49.212;8.084;2022-08-30T15:58:57;2.72;;;2.42;;
61206;SDS011;47070;49.212;8.084;2022-08-30T16:02:58;3.55;;;2.70;;
61206;SDS011;47070;49.212;8.084;2022-08-30T16:06:58;5.20;;;2.97;;
61206;SDS011;47070;49.212;8.084;2022-08-30T16:10:59;4.57;;;2.50;;
61206;SDS011;47070;49.212;8.084;2022-08-30T16:14:59;3.47;;;2.40;;
61206;SDS011;47070;49.212;8.084;2022-08-30T16:19:00;2.30;;;2.10;;
61206;SDS011;47070;49.212;8.084;2022-08-30T16:23:00;3.13;;;2.63;;
61206;SDS011;47070;49.212;8.084;2022-08-30T16:27:01;3.38;;;1.90;;
61206;SDS011;47070;49.212;8.084;2022-08-30T16:31:02;3.40;;;2.45;;
61206;SDS011;47070;49.212;8.084;2022-08-30T16:35:04;2.22;;;2.03;;
61206;SDS011;47070;49.212;8.084;2022-08-30T16:39:06;6.20;;;2.50;;
61206;SDS011;47070;49.212;8.084;2022-08-30T16:43:07;4.05;;;2.72;;
61206;SDS011;47070;49.212;8.084;2022-08-30T16:47:08;4.18;;;2.30;;
61206;SDS011;47070;49.212;8.084;2022-08-30T16:51:10;3.50;;;2.42;;
61206;SDS011;47070;49.212;8.084;2022-08-30T16:55:12;3.13;;;2.42;;
61206;SDS011;47070;49.212;8.084;2022-08-30T16:59:12;4.75;;;2.30;;
61206;SDS011;47070;49.212;8.084;2022-08-30T17:03:13;5.35;;;2.15;;
61206;SDS011;47070;49.212;8.084;2022-08-30T17:07:14;2.92;;;2.30;;
61206;SDS011;47070;49.212;8.084;2022-08-30T17:11:15;2.88;;;2.53;;
61206;SDS011;47070;49.212;8.084;2022-08-30T17:15:15;5.65;;;2.30;;
61206;SDS011;47070;49.212;8.084;2022-08-30T17:19:18;4.90;;;2.55;;
61206;SDS011;47070;49.212;8.084;2022-08-30T17:23:19;3.88;;;2.55;;
61206;SDS011;47070;49.212;8.084;2022-08-30T17:27:20;3.17;;;2.53;;
61206;SDS011;47070;49.212;8.084;2022-08-30T17:31:21;3.42;;;2.30;;
61206;SDS011;47070;49.212;8.084;2022-08-30T17:35:21;5.45;;;2.72;;
61206;SDS011;47070;49.212;8.084;2022-08-30T17:39:23;5.07;;;2.60;;
61206;SDS011;47070;49.212;8.084;2022-08-30T17:43:24;6.60;;;2.92;;
61206;SDS011;47070;49.212;8.084;2022-08-30T17:47:24;4.38;;;2.83;;
61206;SDS011;47070;49.212;8.084;2022-08-30T17:51:25;8.32;;;3.25;;
61206;SDS011;47070;49.212;8.084;2022-08-30T17:55:25;7.07;;;3.50;;
61206;SDS011;47070;49.212;8.084;2022-08-30T17:59:26;4.40;;;3.20;;
61206;SDS011;47070;49.212;8.084;2022-08-30T18:03:27;6.47;;;3.42;;
61206;SDS011;47070;49.212;8.084;2022-08-30T18:07:27;5.50;;;3.35;;
61206;SDS011;47070;49.212;8.084;2022-08-30T18:11:28;3.55;;;2.92;;
61206;SDS011;47070;49.212;8.084;2022-08-30T18:15:28;5.35;;;3.35;;
61206;SDS011;47070;49.212;8.084;2022-08-30T18:19:29;4.43;;;3.00;;
61206;SDS011;47070;49.212;8.084;2022-08-30T18:23:30;7.75;;;2.75;;
61206;SDS011;47070;49.212;8.084;2022-08-30T18:27:31;3.92;;;2.70;;
61206;SDS011;47070;49.212;8.084;2022-08-30T18:31:32;6.22;;;2.72;;
61206;SDS011;47070;49.212;8.084;2022-08-30T18:35:32;4.78;;;2.50;;
61206;SDS011;47070;49.212;8.084;2022-08-30T18:39:33;4.88;;;2.45;;
61206;SDS011;47070;49.212;8.084;2022-08-30T18:43:34;7.47;;;2.53;;
61206;SDS011;47070;49.212;8.084;2022-08-30T18:47:35;3.33;;;2.55;;
61206;SDS011;47070;49.212;8.084;2022-08-30T18:51:36;3.40;;;2.10;;
61206;SDS011;47070;49.212;8.084;2022-08-30T18:55:39;2.80;;;2.42;;
61206;SDS011;47070;49.212;8.084;2022-08-30T18:59:40;3.50;;;2.38;;
61206;SDS011;47070;49.212;8.084;2022-08-30T19:03:40;3.80;;;2.25;;
61206;SDS011;47070;49.212;8.084;2022-08-30T19:07:41;4.50;;;2.28;;
61206;SDS011;47070;49.212;8.084;2022-08-30T19:11:42;4.47;;;2.95;;
61206;SDS011;47070;49.212;8.084;2022-08-30T19:15:43;3.80;;;2.90;;
61206;SDS011;47070;49.212;8.084;2022-08-30T19:19:44;4.32;;;3.08;;
61206;SDS011;47070;49.212;8.084;2022-08-30T19:23:44;3.95;;;2.28;;
61206;SDS011;47070;49.212;8.084;2022-08-30T19:27:45;3.60;;;2.22;;
61206;SDS011;47070;49.212;8.084;2022-08-30T19:31:46;2.55;;;2.30;;
61206;SDS011;47070;49.212;8.084;2022-08-30T19:35:47;3.38;;;2.13;;
61206;SDS011;47070;49.212;8.084;2022-08-30T19:39:47;4.20;;;2.30;;
61206;SDS011;47070;49.212;8.084;2022-08-30T19:43:48;3.22;;;2.20;;
61206;SDS011;47070;49.212;8.084;2022-08-30T19:47:49;2.67;;;2.08;;
61206;SDS011;47070;49.212;8.084;2022-08-30T19:51:52;3.47;;;2.70;;
61206;SDS011;47070;49.212;8.084;2022-08-30T19:55:52;4.78;;;3.10;;
61206;SDS011;47070;49.212;8.084;2022-08-30T19:59:53;3.22;;;2.28;;
61206;SDS011;47070;49.212;8.084;2022-08-30T20:03:54;5.90;;;2.53;;
61206;SDS011;47070;49.212;8.084;2022-08-30T20:07:56;3.35;;;2.70;;
61206;SDS011;47070;49.212;8.084;2022-08-30T20:11:57;4.15;;;2.45;;
61206;SDS011;47070;49.212;8.084;2022-08-30T20:15:57;3.97;;;2.30;;
61206;SDS011;47070;49.212;8.084;2022-08-30T20:19:58;4.28;;;3.20;;
61206;SDS011;47070;49.212;8.084;2022-08-30T20:24:00;3.13;;;2.40;;
61206;SDS011;47070;49.212;8.084;2022-08-30T20:28:01;4.18;;;2.47;;
61206;SDS011;47070;49.212;8.084;2022-08-30T20:32:03;7.07;;;2.13;;
61206;SDS011;47070;49.212;8.084;2022-08-30T20:36:04;4.93;;;3.03;;
61206;SDS011;47070;49.212;8.084;2022-08-30T20:40:07;3.00;;;1.92;;
61206;SDS011;47070;49.212;8.084;2022-08-30T20:44:09;5.35;;;3.40;;
61206;SDS011;47070;49.212;8.084;2022-08-30T20:48:10;6.75;;;3.92;;
61206;SDS011;47070;49.212;8.084;2022-08-30T20:52:11;2.53;;;2.08;;
61206;SDS011;47070;49.212;8.084;2022-08-30T20:56:12;5.32;;;2.30;;
61206;SDS011;47070;49.212;8.084;2022-08-30T21:00:15;4.82;;;2.28;;
61206;SDS011;47070;49.212;8.084;2022-08-30T21:04:15;2.45;;;1.90;;
61206;SDS011;47070;49.212;8.084;2022-08-30T21:08:16;2.72;;;2.35;;
61206;SDS011;47070;49.212;8.084;2022-08-30T21:12:17;2.78;;;2.42;;
61206;SDS011;47070;49.212;8.084;2022-08-30T21:16:18;3.33;;;2.20;;
61206;SDS011;47070;49.212;8.084;2022-08-30T21:20:19;5.40;;;2.42;;
61206;SDS011;47070;49.212;8.084;2022-08-30T21:24:19;3.15;;;2.22;;
61206;SDS011;47070;49.212;8.084;2022-08-30T21:28:20;2.20;;;2.00;;
61206;SDS011;47070;49.212;8.084;2022-08-30T21:32:20;4.65;;;2.50;;
61206;SDS011;47070;49.212;8.084;2022-08-30T21:36:22;3.13;;;2.10;;
61206;SDS011;47070;49.212;8.084;2022-08-30T21:40:42;8.40;;;2.28;;
61206;SDS011;47070;49.212;8.084;2022-08-30T21:44:43;2.08;;;1.70;;
61206;SDS011;47070;49.212;8.084;2022-08-30T21:48:43;4.38;;;1.98;;
61206;SDS011;47070;49.212;8.084;2022-08-30T21:52:45;2.28;;;1.77;;
61206;SDS011;47070;49.212;8.084;2022-08-30T21:56:46;2.30;;;1.90;;
61206;SDS011;47070;49.212;8.084;2022-08-30T22:00:48;2.45;;;2.03;;
61206;SDS011;47070;49.212;8.084;2022-08-30T22:04:49;2.33;;;1.65;;
61206;SDS011;47070;49.212;8.084;2022-08-30T22:08:49;8.07;;;2.47;;
61206;SDS011;47070;49.212;8.084;2022-08-30T22:12:50;3.08;;;2.22;;
61206;SDS011;47070;49.212;8.084;2022-08-30T22:16:50;2.67;;;1.85;;
61206;SDS011;47070;49.212;8.084;2022-08-30T22:20:51;3.45;;;2.00;;
61206;SDS011;47070;49.212;8.084;2022-08-30T22:24:51;2.30;;;1.98;;
61206;SDS011;47070;49.212;8.084;2022-08-30T22:28:52;3.75;;;2.00;;
61206;SDS011;47070;49.212;8.084;2022-08-30T22:32:53;5.22;;;2.33;;
61206;SDS011;47070;49.212;8.084;2022-08-30T22:36:54;3.50;;;2.40;;
61206;SDS011;47070;49.212;8.084;2022-08-30T22:40:54;6.20;;;2.00;;
61206;SDS011;47070;49.212;8.084;2022-08-30T22:44:55;3.42;;;2.03;;
61206;SDS011;47070;49.212;8.084;2022-08-30T22:48:55;5.00;;;2.20;;
61206;SDS011;47070;49.212;8.084;2022-08-30T22:52:56;6.32;;;2.05;;
61206;SDS011;47070;49.212;8.084;2022-08-30T22:56:57;3.97;;;2.38;;
61206;SDS011;47070;49.212;8.084;2022-08-30T23:00:58;2.40;;;1.90;;
61206;SDS011;47070;49.212;8.084;2022-08-30T23:04:58;3.33;;;2.40;;
61206;SDS011;47070;49.212;8.084;2022-08-30T23:08:59;3.90;;;2.40;;
61206;SDS011;47070;49.212;8.084;2022-08-30T23:13:00;5.22;;;2.40;;
61206;SDS011;47070;49.212;8.084;2022-08-30T23:17:01;4.45;;;2.70;;
61206;SDS011;47070;49.212;8.084;2022-08-30T23:21:06;2.75;;;2.22;;
61206;SDS011;47070;49.212;8.084;2022-08-30T23:25:14;4.47;;;2.50;;
61206;SDS011;47070;49.212;8.084;2022-08-30T23:29:34;2.33;;;2.13;;
61206;SDS011;47070;49.212;8.084;2022-08-30T23:33:53;2.17;;;1.80;;
61206;SDS011;47070;49.212;8.084;2022-08-30T23:38:12;6.60;;;2.20;;
61206;SDS011;47070;49.212;8.084;2022-08-30T23:42:31;5.68;;;2.00;;
61206;SDS011;47070;49.212;8.084;2022-08-30T23:46:50;3.28;;;2.10;;
61206;SDS011;47070;49.212;8.084;2022-08-30T23:51:10;2.70;;;2.42;;
61206;SDS011;47070;49.212;8.084;2022-08-30T23:55:29;2.58;;;2.38;;
61206;SDS011;47070;49.212;8.084;2022-08-30T23:59:48;1.50;;;1.40;;
